createdAt,value
2018-07-20T00:01:17.944Z,21.80
2018-07-20T00:03:46.240Z,21.80
2018-07-20T00:06:15.120Z,21.70
2018-07-20T00:08:43.395Z,21.60
2018-07-20T00:11:11.793Z,21.60
2018-07-20T00:13:40.003Z,21.50
2018-07-20T00:16:08.208Z,21.60
2018-07-20T00:18:36.491Z,21.40
2018-07-20T00:23:32.813Z,21.60
2018-07-20T00:26:01.106Z,21.50
2018-07-20T00:28:29.840Z,21.40
2018-07-20T00:30:58.108Z,21.40
2018-07-20T00:33:26.410Z,21.40
2018-07-20T00:35:54.686Z,21.30
2018-07-20T00:38:22.964Z,21.20
2018-07-20T00:40:52.184Z,21.20
2018-07-20T00:43:20.465Z,21.10
2018-07-20T00:45:48.705Z,21.10
2018-07-20T00:48:17.066Z,21.10
2018-07-20T00:50:45.362Z,21.00
2018-07-20T00:53:13.673Z,21.00
2018-07-20T00:55:42.658Z,20.80
2018-07-20T00:58:10.932Z,20.70
2018-07-20T01:00:39.245Z,20.60
2018-07-20T01:03:07.484Z,20.50
2018-07-20T01:05:35.765Z,20.30
2018-07-20T01:08:03.999Z,20.20
2018-07-20T01:10:32.247Z,20.20
2018-07-20T01:13:00.496Z,20.20
2018-07-20T01:15:28.777Z,20.10
2018-07-20T01:17:57.026Z,20.20
2018-07-20T01:20:25.283Z,20.30
2018-07-20T01:22:53.588Z,20.30
2018-07-20T01:25:21.889Z,20.20
2018-07-20T01:30:18.139Z,20.10
2018-07-20T01:32:46.415Z,20.20
2018-07-20T01:35:14.682Z,20.10
2018-07-20T01:37:42.946Z,20.00
2018-07-20T01:40:11.234Z,19.80
2018-07-20T01:42:39.508Z,19.80
2018-07-20T01:47:35.825Z,19.70
2018-07-20T01:50:04.674Z,19.70
2018-07-20T01:52:32.990Z,19.60
2018-07-20T01:55:01.291Z,19.50
2018-07-20T01:57:29.615Z,19.50
2018-07-20T01:59:57.848Z,19.40
2018-07-20T02:02:26.096Z,19.40
2018-07-20T02:04:54.352Z,19.50
2018-07-20T02:07:22.601Z,19.40
2018-07-20T02:09:50.867Z,19.40
2018-07-20T02:12:19.137Z,19.30
2018-07-20T02:14:47.426Z,19.20
2018-07-20T02:20:06.200Z,19.20
2018-07-20T02:22:34.414Z,19.20
2018-07-20T02:25:02.724Z,19.20
2018-07-20T02:27:31.124Z,19.10
2018-07-20T02:29:59.363Z,19.00
2018-07-20T02:32:27.611Z,19.00
2018-07-20T02:34:55.953Z,19.10
2018-07-20T02:37:24.231Z,19.10
2018-07-20T02:39:52.513Z,19.00
2018-07-20T02:42:20.815Z,19.00
2018-07-20T02:44:49.084Z,18.90
2018-07-20T02:47:17.842Z,19.00
2018-07-20T02:49:46.098Z,19.00
2018-07-20T02:54:42.431Z,19.00
2018-07-20T02:57:10.787Z,18.90
2018-07-20T02:59:39.030Z,19.00
2018-07-20T03:02:07.274Z,19.00
2018-07-20T03:04:35.580Z,19.00
2018-07-20T03:07:03.835Z,18.90
2018-07-20T03:09:32.116Z,18.80
2018-07-20T03:14:28.455Z,18.80
2018-07-20T03:16:56.731Z,18.70
2018-07-20T03:19:25.000Z,18.70
2018-07-20T03:21:53.348Z,18.70
2018-07-20T03:24:21.649Z,18.50
2018-07-20T03:26:50.194Z,18.50
2018-07-20T03:29:18.452Z,18.50
2018-07-20T03:31:46.760Z,18.50
2018-07-20T03:34:15.019Z,18.50
2018-07-20T03:36:43.291Z,18.60
2018-07-20T03:39:11.687Z,18.60
2018-07-20T03:41:39.892Z,18.50
2018-07-20T03:44:08.610Z,18.50
2018-07-20T03:46:37.231Z,18.40
2018-07-20T03:49:05.737Z,18.30
2018-07-20T03:51:33.984Z,18.30
2018-07-20T03:54:02.258Z,18.10
2018-07-20T03:56:30.530Z,18.20
2018-07-20T03:58:58.816Z,18.10
2018-07-20T04:01:27.093Z,18.20
2018-07-20T04:03:55.378Z,18.20
2018-07-20T04:06:23.623Z,18.30
2018-07-20T04:08:52.043Z,18.40
2018-07-20T04:11:20.277Z,18.50
2018-07-20T04:13:48.514Z,18.40
2018-07-20T04:16:16.845Z,18.40
2018-07-20T04:18:45.104Z,18.40
2018-07-20T04:21:13.360Z,18.40
2018-07-20T04:23:41.612Z,18.30
2018-07-20T04:26:09.910Z,18.40
2018-07-20T04:31:06.766Z,18.40
2018-07-20T04:33:35.019Z,18.20
2018-07-20T04:36:03.344Z,18.20
2018-07-20T04:38:31.654Z,18.20
2018-07-20T04:40:59.927Z,18.10
2018-07-20T04:43:28.181Z,18.20
2018-07-20T04:45:56.446Z,18.30
2018-07-20T04:48:24.735Z,18.40
2018-07-20T04:50:53.006Z,18.30
2018-07-20T04:53:21.287Z,18.20
2018-07-20T04:55:49.539Z,18.20
2018-07-20T04:58:17.827Z,18.20
2018-07-20T05:00:46.095Z,18.10
2018-07-20T05:03:14.454Z,18.10
2018-07-20T05:05:42.778Z,18.20
2018-07-20T05:08:11.022Z,18.30
2018-07-20T05:10:39.283Z,18.20
2018-07-20T05:13:07.574Z,18.20
2018-07-20T05:15:35.820Z,18.20
2018-07-20T05:18:04.117Z,18.20
2018-07-20T05:20:32.397Z,18.30
2018-07-20T05:23:00.732Z,18.40
2018-07-20T05:25:28.996Z,18.50
2018-07-20T05:27:57.305Z,18.60
2018-07-20T05:30:25.627Z,18.50
2018-07-20T05:32:53.975Z,18.60
2018-07-20T05:35:22.262Z,18.60
2018-07-20T05:37:50.529Z,18.80
2018-07-20T05:42:46.834Z,19.10
2018-07-20T05:45:15.107Z,19.10
2018-07-20T05:47:43.408Z,19.10
2018-07-20T05:50:11.669Z,19.20
2018-07-20T05:52:39.996Z,19.20
2018-07-20T05:55:08.324Z,19.20
2018-07-20T05:57:36.611Z,19.20
2018-07-20T06:00:05.508Z,19.20
2018-07-20T06:02:33.732Z,19.30
2018-07-20T06:05:02.069Z,19.40
2018-07-20T06:07:30.368Z,19.40
2018-07-20T06:09:58.632Z,19.40
2018-07-20T06:12:26.911Z,19.50
2018-07-20T06:14:55.156Z,19.80
2018-07-20T06:17:23.471Z,20.10
2018-07-20T06:19:51.802Z,20.20
2018-07-20T06:22:20.082Z,20.20
2018-07-20T06:24:48.344Z,20.30
2018-07-20T06:27:16.566Z,20.30
2018-07-20T06:29:45.818Z,20.50
2018-07-20T06:32:14.152Z,20.50
2018-07-20T06:34:42.390Z,20.60
2018-07-20T06:37:10.663Z,20.80
2018-07-20T06:39:38.961Z,20.80
2018-07-20T06:42:07.211Z,21.00
2018-07-20T06:44:35.560Z,21.20
2018-07-20T06:47:03.799Z,21.30
2018-07-20T06:49:32.092Z,21.20
2018-07-20T06:52:00.356Z,21.30
2018-07-20T06:54:28.647Z,21.70
2018-07-20T06:56:56.948Z,21.70
2018-07-20T06:59:25.184Z,22.10
2018-07-20T07:01:53.464Z,22.30
2018-07-20T07:04:21.802Z,22.40
2018-07-20T07:06:50.072Z,22.30
2018-07-20T07:09:18.351Z,22.30
2018-07-20T07:11:46.680Z,22.60
2018-07-20T07:14:14.927Z,23.10
2018-07-20T07:16:43.203Z,23.80
2018-07-20T07:19:11.505Z,24.00
2018-07-20T07:21:39.759Z,24.60
2018-07-20T07:26:36.021Z,25.50
2018-07-20T07:29:04.360Z,26.30
2018-07-20T07:31:32.624Z,26.60
2018-07-20T07:34:00.866Z,27.40
2018-07-20T07:36:29.251Z,27.70
2018-07-20T07:38:57.515Z,27.90
2018-07-20T07:41:25.818Z,27.70
2018-07-20T07:43:54.259Z,27.40
2018-07-20T07:46:22.619Z,26.70
2018-07-20T07:51:19.084Z,25.60
2018-07-20T07:53:47.331Z,25.60
2018-07-20T07:56:15.598Z,25.70
2018-07-20T08:01:12.758Z,25.80
2018-07-20T08:03:41.022Z,26.50
2018-07-20T08:06:09.289Z,27.50
2018-07-20T08:08:37.560Z,28.00
2018-07-20T08:11:06.091Z,28.50
2018-07-20T08:16:02.422Z,29.00
2018-07-20T08:18:30.665Z,29.00
2018-07-20T08:20:58.967Z,28.80
2018-07-20T08:23:27.212Z,28.90
2018-07-20T08:25:55.600Z,28.60
2018-07-20T08:28:23.879Z,28.40
2018-07-20T08:30:52.172Z,28.90
2018-07-20T08:33:20.477Z,29.50
2018-07-20T08:38:16.766Z,30.10
2018-07-20T08:40:45.077Z,30.70
2018-07-20T08:43:13.355Z,31.00
2018-07-20T08:45:41.906Z,32.20
2018-07-20T08:48:10.209Z,33.40
2018-07-20T08:50:38.463Z,34.30
2018-07-20T08:53:06.749Z,34.40
2018-07-20T08:55:35.020Z,34.90
2018-07-20T08:58:03.219Z,34.50
2018-07-20T09:00:31.502Z,35.50
2018-07-20T09:02:59.761Z,35.90
2018-07-20T09:05:28.018Z,35.40
2018-07-20T09:07:56.296Z,35.70
2018-07-20T09:10:24.550Z,35.60
2018-07-20T09:12:53.520Z,35.70
2018-07-20T09:15:21.804Z,36.40
2018-07-20T09:17:50.027Z,37.40
2018-07-20T09:20:18.278Z,38.10
2018-07-20T09:22:46.556Z,37.90
2018-07-20T09:25:21.894Z,37.30
2018-07-20T09:27:50.183Z,36.90
2018-07-20T09:30:18.526Z,37.20
2018-07-20T09:32:46.852Z,37.60
2018-07-20T09:35:15.170Z,38.30
2018-07-20T09:37:43.444Z,38.90
2018-07-20T09:42:39.708Z,38.90
2018-07-20T09:45:08.009Z,39.60
2018-07-20T09:47:36.312Z,39.90
2018-07-20T09:50:05.093Z,40.80
2018-07-20T09:52:33.549Z,40.20
2018-07-20T09:55:01.939Z,40.70
2018-07-20T09:57:31.122Z,41.30
2018-07-20T09:59:59.372Z,41.50
2018-07-20T10:02:27.707Z,41.90
2018-07-20T10:04:55.982Z,40.80
2018-07-20T10:07:24.506Z,39.90
2018-07-20T10:09:52.828Z,39.50
2018-07-20T10:12:21.138Z,40.30
2018-07-20T10:14:49.426Z,41.40
2018-07-20T10:17:17.692Z,41.20
2018-07-20T10:19:45.934Z,41.10
2018-07-20T10:22:14.220Z,40.30
2018-07-20T10:24:42.488Z,40.90
2018-07-20T10:29:38.329Z,41.10
2018-07-20T10:32:06.659Z,41.10
2018-07-20T10:34:34.949Z,39.50
2018-07-20T10:37:03.221Z,40.90
2018-07-20T10:39:31.505Z,42.10
2018-07-20T10:41:59.768Z,42.70
2018-07-20T10:44:28.035Z,43.80
2018-07-20T10:46:56.361Z,43.70
2018-07-20T10:49:24.600Z,42.80
2018-07-20T10:51:52.868Z,43.10
2018-07-20T10:54:21.129Z,44.00
2018-07-20T10:56:49.424Z,43.50
2018-07-20T10:59:17.703Z,42.50
2018-07-20T11:01:45.997Z,42.10
2018-07-20T11:04:14.257Z,42.60
2018-07-20T11:06:43.225Z,42.60
2018-07-20T11:09:11.532Z,42.40
2018-07-20T11:11:39.932Z,42.70
2018-07-20T11:14:08.914Z,42.70
2018-07-20T11:16:37.204Z,41.90
2018-07-20T11:19:05.590Z,40.30
2018-07-20T11:21:33.933Z,40.30
2018-07-20T11:24:02.228Z,40.40
2018-07-20T11:26:30.526Z,40.70
2018-07-20T11:28:58.779Z,40.40
2018-07-20T11:31:27.022Z,40.50
2018-07-20T11:33:55.275Z,41.00
2018-07-20T11:38:51.602Z,41.20
2018-07-20T11:41:19.842Z,41.50
2018-07-20T11:43:48.086Z,42.90
2018-07-20T11:46:16.327Z,42.60
2018-07-20T11:48:44.597Z,43.20
2018-07-20T11:51:12.886Z,43.60
2018-07-20T11:53:41.144Z,43.40
2018-07-20T11:56:09.402Z,43.40
2018-07-20T11:58:37.783Z,43.90
2018-07-20T12:01:06.051Z,43.60
2018-07-20T12:03:34.341Z,44.50
2018-07-20T12:06:02.927Z,45.20
2018-07-20T12:08:31.237Z,44.90
2018-07-20T12:10:59.507Z,44.20
2018-07-20T12:13:27.797Z,44.70
2018-07-20T12:18:24.062Z,43.20
2018-07-20T12:20:52.290Z,41.00
2018-07-20T12:23:20.617Z,38.90
2018-07-20T12:25:48.935Z,40.00
2018-07-20T12:28:17.224Z,41.90
2018-07-20T12:30:45.445Z,42.90
2018-07-20T12:33:13.741Z,44.00
2018-07-20T12:35:42.039Z,43.30
2018-07-20T12:38:10.315Z,41.90
2018-07-20T12:40:38.587Z,42.00
2018-07-20T12:43:06.854Z,40.90
2018-07-20T12:45:35.082Z,42.10
2018-07-20T12:48:03.336Z,41.20
2018-07-20T12:50:31.637Z,40.40
2018-07-20T12:52:59.883Z,40.80
2018-07-20T12:55:28.118Z,42.20
2018-07-20T12:57:56.440Z,42.90
2018-07-20T13:00:24.696Z,41.90
2018-07-20T13:02:52.981Z,42.00
2018-07-20T13:05:21.248Z,42.10
2018-07-20T13:07:49.546Z,42.10
2018-07-20T13:10:17.842Z,41.30
2018-07-20T13:12:46.081Z,40.30
2018-07-20T13:15:14.347Z,38.60
2018-07-20T13:17:42.643Z,38.80
2018-07-20T13:20:11.004Z,38.20
2018-07-20T13:22:39.273Z,37.60
2018-07-20T13:25:07.729Z,36.80
2018-07-20T13:27:36.030Z,36.90
2018-07-20T13:30:05.706Z,36.70
2018-07-20T13:32:33.954Z,37.00
2018-07-20T13:35:02.251Z,37.10
2018-07-20T13:39:58.554Z,36.60
2018-07-20T13:42:27.232Z,36.70
2018-07-20T13:44:55.494Z,36.80
2018-07-20T13:47:23.795Z,36.80
2018-07-20T13:49:52.190Z,36.60
2018-07-20T13:52:20.503Z,36.50
2018-07-20T13:54:48.865Z,36.70
2018-07-20T13:57:17.177Z,36.00
2018-07-20T13:59:45.505Z,35.70
2018-07-20T14:02:13.786Z,35.90
2018-07-20T14:04:42.072Z,36.00
2018-07-20T14:07:10.356Z,35.70
2018-07-20T14:09:38.772Z,35.70
2018-07-20T14:12:07.457Z,35.60
2018-07-20T14:14:35.783Z,35.50
2018-07-20T14:17:04.329Z,35.60
2018-07-20T14:19:32.812Z,35.60
2018-07-20T14:22:01.056Z,35.50
2018-07-20T14:24:29.492Z,35.40
2018-07-20T14:26:57.828Z,35.00
2018-07-20T14:29:26.119Z,35.10
2018-07-20T14:31:54.492Z,35.10
2018-07-20T14:34:22.765Z,34.90
2018-07-20T14:36:51.376Z,34.50
2018-07-20T14:39:19.702Z,34.50
2018-07-20T14:41:48.092Z,34.30
2018-07-20T14:44:16.467Z,34.70
2018-07-20T14:46:44.769Z,35.20
2018-07-20T14:49:13.043Z,35.40
2018-07-20T14:51:41.435Z,34.90
2018-07-20T14:54:09.708Z,34.80
2018-07-20T14:56:37.994Z,35.00
2018-07-20T14:59:06.386Z,35.10
2018-07-20T15:01:34.715Z,35.30
2018-07-20T15:04:03.049Z,35.00
2018-07-20T15:06:31.428Z,34.80
2018-07-20T15:13:56.652Z,34.50
2018-07-20T15:16:24.892Z,34.20
2018-07-20T15:18:53.236Z,34.40
2018-07-20T15:21:21.456Z,34.00
2018-07-20T15:23:49.739Z,33.90
2018-07-20T15:26:18.392Z,34.10
2018-07-20T15:28:46.716Z,34.30
2018-07-20T15:31:15.069Z,34.30
2018-07-20T15:33:43.368Z,34.10
2018-07-20T15:36:11.656Z,33.90
2018-07-20T15:38:39.942Z,33.70
2018-07-20T15:43:36.688Z,33.60
2018-07-20T15:46:06.317Z,33.60
2018-07-20T15:48:33.385Z,33.70
2018-07-20T15:51:01.639Z,33.70
2018-07-20T15:53:37.545Z,33.70
2018-07-20T15:55:58.544Z,33.60
2018-07-20T15:58:26.856Z,33.20
2018-07-20T16:00:55.112Z,33.00
2018-07-20T16:03:23.419Z,32.90
2018-07-20T16:08:19.728Z,32.50
2018-07-20T16:10:48.024Z,32.40
2018-07-20T16:13:16.307Z,32.40
2018-07-20T16:15:44.677Z,32.30
2018-07-20T16:18:13.005Z,32.40
2018-07-20T16:20:41.284Z,32.60
2018-07-20T16:23:09.682Z,32.80
2018-07-20T16:25:38.575Z,32.50
2018-07-20T16:28:06.771Z,32.20
2018-07-20T16:30:35.068Z,32.00
2018-07-20T16:35:31.364Z,32.10
2018-07-20T16:37:59.759Z,31.80
2018-07-20T16:40:28.056Z,31.70
2018-07-20T16:45:24.343Z,31.50
2018-07-20T16:47:52.648Z,31.50
2018-07-20T16:50:20.989Z,31.50
2018-07-20T16:52:49.284Z,31.40
2018-07-20T16:55:17.606Z,31.40
2018-07-20T16:57:46.944Z,31.50
2018-07-20T17:00:15.253Z,31.40
2018-07-20T17:02:43.540Z,31.10
2018-07-20T17:05:11.925Z,30.60
2018-07-20T17:07:40.226Z,30.40
2018-07-20T17:10:08.451Z,30.40
2018-07-20T17:12:36.822Z,30.10
2018-07-20T17:15:05.468Z,30.10
2018-07-20T17:17:33.765Z,30.10
2018-07-20T17:20:02.226Z,30.00
2018-07-20T17:22:30.728Z,30.00
2018-07-20T17:27:27.311Z,30.40
2018-07-20T17:29:55.613Z,30.60
2018-07-20T17:32:23.920Z,30.10
2018-07-20T17:34:52.258Z,30.10
2018-07-20T17:37:20.528Z,29.80
2018-07-20T17:39:48.807Z,29.50
2018-07-20T17:42:17.042Z,29.30
2018-07-20T17:44:45.308Z,29.00
2018-07-20T17:54:37.603Z,28.40
2018-07-20T17:57:05.876Z,28.00
2018-07-20T18:02:02.129Z,27.70
2018-07-20T18:04:30.604Z,27.60
2018-07-20T18:06:58.949Z,27.50
2018-07-20T18:09:27.414Z,27.50
2018-07-20T18:11:57.042Z,27.60
2018-07-20T18:14:25.969Z,27.20
2018-07-20T18:16:54.831Z,26.80
2018-07-20T18:19:23.274Z,26.70
2018-07-20T18:21:51.576Z,26.90
2018-07-20T18:24:20.194Z,26.50
2018-07-20T18:26:48.535Z,25.70
2018-07-20T18:29:16.746Z,25.20
2018-07-20T18:31:45.129Z,25.10
2018-07-20T18:34:13.509Z,25.10
2018-07-20T18:36:41.825Z,25.30
2018-07-20T18:39:11.490Z,25.50
2018-07-20T18:41:40.685Z,25.60
2018-07-20T18:44:09.173Z,25.60
2018-07-20T18:46:37.830Z,25.70
2018-07-20T18:51:34.582Z,25.90
2018-07-20T18:54:02.871Z,25.90
2018-07-20T18:56:31.238Z,25.90
2018-07-20T18:58:59.502Z,26.00
2018-07-20T19:01:28.065Z,26.10
2018-07-20T19:03:56.359Z,26.20
2018-07-20T19:06:24.612Z,26.20
2018-07-20T19:08:52.912Z,26.10
2018-07-20T19:11:21.222Z,26.10
2018-07-20T19:13:49.480Z,26.00
2018-07-20T19:16:17.740Z,25.60
2018-07-20T19:18:46.585Z,25.60
2018-07-20T19:21:14.901Z,25.70
2018-07-20T19:23:43.235Z,25.90
2018-07-20T19:26:11.470Z,26.10
2018-07-20T19:28:39.769Z,26.20
2018-07-20T19:31:08.061Z,26.30
2018-07-20T19:33:36.404Z,26.20
2018-07-20T19:36:11.244Z,26.20
2018-07-20T19:38:39.538Z,26.30
2018-07-20T19:41:07.847Z,26.30
2018-07-20T19:43:36.644Z,26.30
2018-07-20T19:46:04.981Z,26.30
2018-07-20T19:48:33.374Z,26.20
2018-07-20T19:51:02.119Z,26.20
2018-07-20T19:55:58.439Z,26.20
2018-07-20T19:58:26.801Z,26.30
2018-07-20T20:00:55.120Z,26.30
2018-07-20T20:03:23.647Z,26.30
2018-07-20T20:05:51.944Z,26.40
2018-07-20T20:08:21.206Z,26.40
2018-07-20T20:10:49.524Z,26.20
2018-07-20T20:13:17.828Z,26.20
2018-07-20T20:15:46.209Z,26.20
2018-07-20T20:20:43.717Z,26.20
2018-07-20T20:23:12.024Z,26.10
2018-07-20T20:25:40.431Z,26.10
2018-07-20T20:28:08.687Z,26.00
2018-07-20T20:30:37.026Z,25.90
2018-07-20T20:33:05.258Z,25.80
2018-07-20T20:35:33.584Z,25.70
2018-07-20T20:38:01.813Z,25.70
2018-07-20T20:40:30.084Z,25.80
2018-07-20T20:42:58.419Z,25.80
2018-07-20T20:45:26.707Z,25.80
2018-07-20T20:47:55.017Z,25.70
2018-07-20T20:50:23.348Z,25.70
2018-07-20T20:52:51.552Z,25.60
2018-07-20T20:55:19.809Z,25.60
2018-07-20T20:57:48.085Z,25.60
2018-07-20T21:00:16.411Z,25.60
2018-07-20T21:02:44.777Z,25.60
2018-07-20T21:05:13.079Z,25.60
2018-07-20T21:07:41.397Z,25.60
2018-07-20T21:10:09.667Z,25.50
2018-07-20T21:12:38.008Z,25.50
2018-07-20T21:15:06.303Z,25.50
2018-07-20T21:17:34.574Z,25.50
2018-07-20T21:20:02.866Z,25.50
2018-07-20T21:22:31.155Z,25.50
2018-07-20T21:24:59.878Z,25.40
2018-07-20T21:27:28.096Z,25.40
2018-07-20T21:29:56.375Z,25.40
2018-07-20T21:32:24.983Z,25.40
2018-07-20T21:34:53.324Z,25.60
2018-07-20T21:37:21.660Z,25.60
2018-07-20T21:39:49.966Z,25.50
2018-07-20T21:42:18.309Z,25.50
2018-07-20T21:44:46.573Z,25.40
2018-07-20T21:47:14.892Z,25.30
2018-07-20T21:49:43.263Z,25.40
2018-07-20T21:52:11.743Z,25.40
2018-07-20T21:57:08.101Z,25.30
2018-07-20T21:59:36.439Z,25.20
2018-07-20T22:02:04.680Z,25.20
2018-07-20T22:04:32.952Z,25.20
2018-07-20T22:07:01.255Z,25.20
2018-07-20T22:09:29.573Z,25.10
2018-07-20T22:11:58.903Z,25.10
2018-07-20T22:14:27.196Z,25.10
2018-07-20T22:16:55.488Z,25.00
2018-07-20T22:19:23.716Z,24.80
2018-07-20T22:24:20.075Z,24.90
2018-07-20T22:26:48.351Z,24.80
2018-07-20T22:29:16.659Z,24.80
2018-07-20T22:31:44.955Z,24.70
2018-07-20T22:34:13.325Z,24.70
2018-07-20T22:36:41.600Z,24.70
2018-07-20T22:39:12.495Z,24.70
2018-07-20T22:41:41.226Z,24.40
2018-07-20T22:44:09.455Z,24.30
2018-07-20T22:46:37.765Z,24.20
2018-07-20T22:49:06.025Z,24.10
2018-07-20T22:51:34.332Z,24.10
2018-07-20T22:54:02.578Z,24.10
2018-07-20T22:56:30.837Z,24.10
2018-07-20T22:58:59.128Z,24.10
2018-07-20T23:01:27.437Z,24.20
2018-07-20T23:03:55.688Z,24.10
2018-07-20T23:06:23.947Z,24.00
2018-07-20T23:08:52.304Z,24.00
2018-07-20T23:11:20.556Z,24.00
2018-07-20T23:13:48.822Z,23.90
2018-07-20T23:16:17.219Z,23.90
2018-07-20T23:18:45.501Z,23.80
2018-07-20T23:21:13.773Z,23.80
2018-07-20T23:23:42.095Z,23.80
2018-07-20T23:26:10.407Z,23.80
2018-07-20T23:28:38.705Z,23.80
2018-07-20T23:31:06.939Z,23.90
2018-07-20T23:33:35.212Z,23.90
2018-07-20T23:36:03.515Z,24.00
2018-07-20T23:38:31.797Z,23.90
2018-07-20T23:41:00.058Z,23.80
2018-07-20T23:43:28.388Z,23.80
2018-07-20T23:45:56.609Z,23.80
2018-07-20T23:48:24.952Z,23.60
2018-07-20T23:50:53.240Z,23.70
2018-07-20T23:53:21.478Z,23.80
2018-07-20T23:55:50.007Z,23.70
2018-07-20T23:58:18.238Z,23.80
